Wednesday, January 17, 2018, 2:41 PM GMT
Back to Local

CYSJ, Saint John, N. B.

Location: , , Canada Lat: 45.333
Local Time: 2:41 PM GMT (14:41 GMT) Lon: -65.883
Time Zone: GMT Elev: 337 ft

Show me the last for .
Show Decoded

2018-01-17 14:16 METAR CYSJ 171416Z 11008KT 2SM -SN FEW015 OVC037 M04/M05 A3040 RMK SC2SC6 SLP302
                 =
2018-01-17 14:00 METAR CYSJ 171400Z 11005KT 070V140 3SM -SN FEW015 OVC038 M04/M05 A3040 RMK
                 SC1SC7 SLP303 =
2018-01-17 13:55 METAR CYSJ 171355Z 10005KT 3SM -SN FEW015 OVC038 M05/M06 A3040 RMK SC1SC7 SLP302
                 =
2018-01-17 13:51 METAR CYSJ 171351Z 09004KT 2 1/2SM -SN FEW015 OVC040 M05/M06 A3040 RMK SC2SC6
                 SLP303 =
2018-01-17 13:27 METAR CYSJ 171327Z VRB02KT 1SM R05/P6000FT/N -SN VV015 M05/M07 A3041 RMK SN8
                 SLP309 =
2018-01-17 13:17 METAR CYSJ 171317Z 00000KT 2SM -SN OVC020 M06/M07 A3041 RMK SC8 SLP308 =
2018-01-17 13:00 METAR CYSJ 171300Z VRB02KT 3SM -SN SCT018 OVC035 M07/M08 A3041 RMK SC4SC4 SLP309
                 =
2018-01-17 12:00 METAR CYSJ 171200Z 05003KT 10SM -SN SCT026 OVC039 M07/M08 A3041 RMK SC3SC5
                 SLP309 =
2018-01-17 11:00 METAR CYSJ 171100Z 04003KT 6SM -SN SCT025 OVC039 M08/M09 A3043 RMK SC3SC5 SLP314
                 =
2018-01-17 10:00 METAR CYSJ 171000Z 07002KT 5SM -SN FEW020 OVC045 M08/M09 A3043 RMK SC2SC6 SLP313
                 =
2018-01-17 09:00 METAR CYSJ 170900Z 00000KT 4SM -SN BKN058 OVC090 M08/M10 A3042 RMK SC5AC3 SLP311
                 =
2018-01-17 08:54 METAR CYSJ 170854Z 00000KT 8SM -SN BKN063 OVC095 M08/M10 A3042 RMK SC5AC3 SLP310
                 =
2018-01-17 08:00 METAR CYSJ 170800Z 02004KT 15SM BKN058 OVC090 M08/M10 A3042 RMK SC5AC3 SLP311 =
2018-01-17 07:00 METAR CYSJ 170700Z 00000KT 15SM SCT095 OVC150 M10/M11 A3043 RMK AC3AC5 SLP313 =
2018-01-17 06:00 METAR CYSJ 170600Z 02002KT 15SM SCT120 BKN150 OVC180 M10/M11 A3043 RMK AC3AC3AC2
                 SLP314 =
2018-01-17 05:00 METAR CYSJ 170500Z 00000KT 15SM BKN150 OVC220 M11/M12 A3043 RMK AC5CI3 SLP316 =
2018-01-17 04:00 METAR CYSJ 170400Z 00000KT 15SM BKN160 BKN220 M12/M13 A3045 RMK AC5CI2 SLP320 =
2018-01-17 03:00 METAR CYSJ 170300Z 00000KT 15SM SCT015 BKN150 BKN220 M12/M13 A3046 RMK SC3AC2CI2
                 SLP326 =
2018-01-17 02:00 METAR CYSJ 170200Z VRB02KT 15SM SCT015 M11/M13 A3046 RMK SC4 SLP327 =
2018-01-17 01:00 METAR CYSJ 170100Z 00000KT 15SM BKN015 M10/M12 A3046 RMK SC5 SLP325 =
2018-01-17 00:00 METAR CYSJ 170000Z 32004KT 12SM BKN016 M10/M11 A3046 RMK SC6 SLP326 =
2018-01-16 23:00 METAR CYSJ 162300Z 31004KT 15SM OVC015 M08/M10 A3045 RMK SC8 SLP322 =
2018-01-16 22:00 METAR CYSJ 162200Z 33008KT 15SM OVC013 M08/M10 A3044 RMK SC8 SLP317 =
2018-01-16 21:00 METAR CYSJ 162100Z 31006KT 290V360 15SM OVC012 M07/M10 A3043 RMK SC8 SLP314 =
2018-01-16 20:00 METAR CYSJ 162000Z 35008KT 8SM -SHSN OVC014 M07/M09 A3042 RMK SC8 SLP310 =
2018-01-16 19:00 METAR CYSJ 161900Z 35007KT 6SM -SHSN SCT007 OVC018 M07/M08 A3040 RMK SF4SC4
                 SLP304 =
2018-01-16 18:00 METAR CYSJ 161800Z 33006KT 8SM -SHSN SCT008 OVC013 M07/M08 A3040 RMK SF4SC4
                 SLP304 =
2018-01-16 17:00 METAR CYSJ 161700Z 35003KT 8SM SCT005 OVC015 M07/M08 A3038 RMK SF4SC4 SLP298 =
2018-01-16 16:54 METAR CYSJ 161654Z VRB02KT 8SM SCT005 OVC014 M07/M08 A3039 RMK SF4SC4 SLP299 =
2018-01-16 16:23 METAR CYSJ 161623Z 03006KT 4SM -SHSN BR SCT006 OVC023 M07/M08 A3040 RMK SF4SC4
                 PRESFR SLP304 =
2018-01-16 16:00 METAR CYSJ 161600Z 35006KT 310V020 2SM -FZDZ BR BKN006 OVC011 M08/M09 A3043 RMK
                 SF6SC2 SLP313 =
2018-01-16 15:00 METAR CYSJ 161500Z 34008KT 2SM -FZDZ BR OVC005 M08/M09 A3044 RMK SF8 SLP318 =
2018-01-16 14:43 METAR CYSJ 161443Z 34006KT 2SM BR OVC007 M08/M09 A3045 RMK SF8 SLP321 =

Support USWX by starting your Amazon purchase here.